Time;durP1;ratioP1;P1;durP2;ratioP2;P2;SDS_P1;SDS_P2;PMS_P1;PMS_P2;Temp;Humidity;BMP_temperature;BMP_pressure;BME280_temperature;BME280_humidity;BME280_pressure;Samples;Min_cycle;Max_cycle;Signal;HPM_P1;HPM_P2
2022/08/12 00:42:52;;;;;;;;;;;22.70;81.60;;;;;;2014033;28;19909;-70
2022/08/12 00:43:52;;;;;;;;;;;22.70;80.90;;;;;;2014244;28;19909;-72
2022/08/12 00:44:50;;;;;;;;;;;22.70;80.80;;;;;;2013923;28;19913;-72
2022/08/12 00:47:06;;;;;;;;;;;22.70;80.80;;;;;;2014244;28;20355;-70
2022/08/12 00:48:05;;;;;;;;;;;22.70;80.80;;;;;;2014120;28;19909;-71
2022/08/12 00:49:04;;;;;;;;;;;22.60;80.80;;;;;;2013929;28;19961;-70
2022/08/12 00:50:04;;;;;;;;;;;22.70;80.90;;;;;;2014102;28;19909;-71
2022/08/12 00:51:03;;;;;;;;;;;22.70;80.80;;;;;;2013981;28;20003;-70
2022/08/12 00:52:06;;;;;;;;;;;22.70;80.80;;;;;;2013914;28;19931;-71
2022/08/12 00:53:06;;;;;;;;;;;22.70;80.90;;;;;;2014038;28;19909;-72
2022/08/12 00:54:04;;;;;;;;;;;22.70;80.90;;;;;;2013980;28;19909;-72
2022/08/12 00:55:03;;;;;;;;;;;22.60;80.80;;;;;;2013828;28;20020;-71
2022/08/12 00:56:03;;;;;;;;;;;22.60;80.80;;;;;;2013922;28;20322;-71
2022/08/12 00:57:04;;;;;;;;;;;22.70;80.90;;;;;;2013915;28;20352;-70
2022/08/12 00:58:04;;;;;;;;;;;22.60;81.00;;;;;;2013908;28;19959;-71
2022/08/12 00:59:03;;;;;;;;;;;22.70;81.00;;;;;;2013973;28;20286;-70
2022/08/12 01:00:01;;;;;;;;;;;22.70;81.00;;;;;;2014058;28;19916;-72
2022/08/12 01:01:01;;;;;;;;;;;22.70;81.00;;;;;;2013892;28;19909;-71
2022/08/12 01:02:01;;;;;;;;;;;22.60;81.00;;;;;;2013904;28;20315;-71
2022/08/12 01:03:00;;;;;;;;;;;22.70;81.00;;;;;;2013808;28;19913;-71
2022/08/12 01:11:49;;;;;;;;;;;22.60;81.40;;;;;;2013701;28;20361;-71
2022/08/12 01:12:48;;;;;;;;;;;22.60;81.40;;;;;;2013677;28;19960;-72
2022/08/12 01:13:47;;;;;;;;;;;22.60;81.40;;;;;;2013781;28;19921;-71
2022/08/12 01:14:46;;;;;;;;;;;22.70;81.50;;;;;;2013768;28;19924;-70
2022/08/12 01:15:45;;;;;;;;;;;22.60;81.40;;;;;;2013942;28;19909;-71
2022/08/12 01:16:45;;;;;;;;;;;22.60;81.50;;;;;;2013888;28;19915;-70
2022/08/12 01:17:44;;;;;;;;;;;22.60;81.50;;;;;;2013783;28;19909;-69
2022/08/12 01:18:43;;;;;;;;;;;22.60;81.60;;;;;;2013875;28;19915;-70
2022/08/12 01:19:42;;;;;;;;;;;22.60;81.60;;;;;;2013959;28;20482;-71
2022/08/12 01:20:48;;;;;;;;;;;22.60;81.50;;;;;;2013899;28;20003;-69
2022/08/12 01:21:47;;;;;;;;;;;22.60;81.60;;;;;;2013843;28;19937;-70
2022/08/12 01:23:04;;;;;;;;;;;22.60;81.60;;;;;;2013786;28;19910;-70
2022/08/12 01:24:06;;;;;;;;;;;22.60;81.60;;;;;;2013951;28;19909;-72
2022/08/12 01:25:16;;;;;;;;;;;22.50;81.50;;;;;;2013107;28;19960;-73
2022/08/12 01:26:15;;;;;;;;;;;22.60;81.60;;;;;;2013230;28;19995;-71
2022/08/12 01:27:14;;;;;;;;;;;22.60;81.60;;;;;;2013668;28;19924;-72
2022/08/12 01:28:13;;;;;;;;;;;22.50;81.60;;;;;;2013779;28;19920;-70
2022/08/12 01:29:14;;;;;;;;;;;22.50;81.60;;;;;;2013806;28;19960;-71
2022/08/12 01:30:13;;;;;;;;;;;22.50;81.70;;;;;;2013661;28;20015;-71
2022/08/12 01:31:13;;;;;;;;;;;22.50;81.70;;;;;;2013705;28;19913;-72
2022/08/12 01:32:15;;;;;;;;;;;22.60;81.70;;;;;;2013601;28;20023;-71
2022/08/12 01:33:16;;;;;;;;;;;22.50;81.60;;;;;;2013788;28;20320;-72
2022/08/12 01:34:18;;;;;;;;;;;22.50;81.60;;;;;;2013845;28;20264;-71
2022/08/12 01:35:16;;;;;;;;;;;22.60;81.70;;;;;;2013664;28;20356;-72
2022/08/12 01:36:16;;;;;;;;;;;22.50;81.70;;;;;;2013611;28;19910;-71
2022/08/12 01:37:15;;;;;;;;;;;22.50;81.70;;;;;;2013605;28;19909;-71
2022/08/12 01:38:17;;;;;;;;;;;22.60;81.80;;;;;;2013614;28;19909;-72
2022/08/12 01:39:16;;;;;;;;;;;22.50;81.70;;;;;;2013535;28;20003;-71
2022/08/12 01:40:17;;;;;;;;;;;22.50;81.80;;;;;;2013555;28;19909;-72
2022/08/12 01:41:17;;;;;;;;;;;22.50;81.80;;;;;;2013654;28;19909;-73
2022/08/12 01:42:17;;;;;;;;;;;22.50;81.80;;;;;;2013539;28;19979;-72
2022/08/12 01:43:20;;;;;;;;;;;22.50;81.80;;;;;;2013685;28;20420;-72
2022/08/12 01:44:23;;;;;;;;;;;22.60;81.80;;;;;;2013562;28;19913;-70
2022/08/12 01:45:23;;;;;;;;;;;22.50;81.80;;;;;;2012872;28;19917;-70
2022/08/12 01:46:28;;;;;;;;;;;22.50;81.80;;;;;;2013106;28;20368;-72
2022/08/12 01:47:38;;;;;;;;;;;22.50;81.90;;;;;;2013574;28;19910;-72
2022/08/12 01:48:39;;;;;;;;;;;22.50;81.80;;;;;;2013646;28;19913;-72
2022/08/12 01:49:56;;;;;;;;;;;22.50;81.80;;;;;;2013439;28;19976;-70
2022/08/12 01:51:01;;;;;;;;;;;22.50;81.80;;;;;;2013653;28;20392;-70
2022/08/12 01:52:03;;;;;;;;;;;22.60;81.90;;;;;;2013639;28;19913;-71
2022/08/12 01:53:04;;;;;;;;;;;22.50;81.70;;;;;;2013623;28;20229;-72
2022/08/12 01:54:08;;;;;;;;;;;22.60;81.80;;;;;;2013618;28;19909;-70
2022/08/12 01:55:08;;;;;;;;;;;22.60;81.80;;;;;;2013591;28;20285;-70
2022/08/12 01:56:09;;;;;;;;;;;22.60;81.80;;;;;;2013574;28;19916;-70
2022/08/12 01:57:09;;;;;;;;;;;22.50;81.80;;;;;;2013454;28;19932;-72
2022/08/12 01:58:29;;;;;;;;;;;22.50;81.70;;;;;;2013443;28;19909;-71
2022/08/12 01:59:48;;;;;;;;;;;22.50;81.70;;;;;;2013518;28;19909;-72
2022/08/12 02:00:57;;;;;;;;;;;22.60;81.90;;;;;;2013658;28;20272;-72
2022/08/12 02:01:56;;;;;;;;;;;22.50;81.80;;;;;;2013585;28;19932;-72
2022/08/12 02:12:18;;;;;;;;;;;22.50;82.00;;;;;;2013265;28;20380;-70
2022/08/12 02:13:32;;;;;;;;;;;22.50;82.00;;;;;;2013488;28;20399;-71
2022/08/12 02:14:45;;;;;;;;;;;22.50;82.00;;;;;;2013415;28;19909;-70
2022/08/12 02:15:51;;;;;;;;;;;22.60;82.10;;;;;;2013395;28;19912;-71
2022/08/12 02:16:53;;;;;;;;;;;22.50;82.00;;;;;;2012985;28;19964;-71
2022/08/12 02:18:06;;;;;;;;;;;22.50;82.00;;;;;;2013418;28;20101;-71
2022/08/12 02:19:14;;;;;;;;;;;22.50;82.00;;;;;;2013293;28;20216;-71
2022/08/12 02:20:20;;;;;;;;;;;22.50;82.00;;;;;;2013277;28;19913;-70
2022/08/12 02:21:33;;;;;;;;;;;22.50;82.00;;;;;;2013391;28;19996;-70
2022/08/12 02:22:37;;;;;;;;;;;22.50;82.00;;;;;;2013352;28;20364;-72
2022/08/12 02:23:36;;;;;;;;;;;22.50;82.00;;;;;;2013236;28;19909;-71
2022/08/12 02:24:36;;;;;;;;;;;22.50;82.10;;;;;;2013386;28;19909;-71
2022/08/12 02:25:42;;;;;;;;;;;22.50;82.70;;;;;;2013292;28;19935;-70
2022/08/12 02:26:43;;;;;;;;;;;22.50;82.00;;;;;;2013153;28;20362;-70
2022/08/12 02:27:44;;;;;;;;;;;22.50;82.10;;;;;;2013343;28;20383;-72
2022/08/12 02:28:43;;;;;;;;;;;22.50;82.00;;;;;;2013257;28;20364;-71
2022/08/12 02:29:41;;;;;;;;;;;22.50;82.00;;;;;;2013238;28;20024;-71
2022/08/12 02:30:41;;;;;;;;;;;22.50;82.00;;;;;;2013145;28;19909;-71
2022/08/12 02:31:41;;;;;;;;;;;22.50;82.00;;;;;;2013216;28;19959;-70
2022/08/12 02:32:42;;;;;;;;;;;22.50;82.00;;;;;;2013129;28;19962;-70
2022/08/12 02:33:40;;;;;;;;;;;22.50;82.00;;;;;;2013173;28;19916;-72
2022/08/12 02:34:42;;;;;;;;;;;22.50;82.00;;;;;;2013209;28;19913;-72
2022/08/12 02:35:41;;;;;;;;;;;22.50;82.00;;;;;;2013234;28;19909;-71
2022/08/12 02:36:39;;;;;;;;;;;22.50;82.00;;;;;;2013162;28;19992;-71
2022/08/12 02:37:38;;;;;;;;;;;22.50;82.00;;;;;;2013128;28;20472;-70
2022/08/12 02:38:40;;;;;;;;;;;22.50;82.10;;;;;;2013177;28;20011;-71
2022/08/12 02:39:39;;;;;;;;;;;22.50;82.10;;;;;;2013114;28;19921;-72
2022/08/12 02:40:39;;;;;;;;;;;22.50;82.10;;;;;;2013072;28;20361;-70
2022/08/12 02:41:40;;;;;;;;;;;22.50;82.00;;;;;;2013267;28;19909;-70
2022/08/12 02:42:52;;;;;;;;;;;22.50;82.10;;;;;;2013079;28;19933;-71
2022/08/12 02:43:53;;;;;;;;;;;22.40;82.00;;;;;;2013211;28;20371;-70
2022/08/12 02:44:54;;;;;;;;;;;22.50;82.10;;;;;;2013031;28;19909;-71
2022/08/12 02:46:12;;;;;;;;;;;22.40;82.00;;;;;;2013000;28;20069;-70
2022/08/12 02:47:13;;;;;;;;;;;22.50;82.10;;;;;;2013379;28;19921;-71
2022/08/12 02:48:14;;;;;;;;;;;22.40;82.00;;;;;;2013192;28;19909;-72
2022/08/12 02:49:16;;;;;;;;;;;22.50;82.10;;;;;;2013009;28;19913;-71
2022/08/12 02:50:16;;;;;;;;;;;22.40;82.00;;;;;;2012990;28;19962;-72
2022/08/12 02:51:18;;;;;;;;;;;22.50;82.00;;;;;;2013128;28;19928;-72
2022/08/12 02:52:17;;;;;;;;;;;22.50;82.80;;;;;;2012984;28;19909;-71
2022/08/12 02:53:16;;;;;;;;;;;22.50;82.10;;;;;;2013167;28;20345;-71
2022/08/12 02:54:14;;;;;;;;;;;22.40;82.00;;;;;;2012982;28;19928;-71
2022/08/12 02:55:16;;;;;;;;;;;22.50;82.00;;;;;;2012951;28;19919;-71
2022/08/12 02:56:16;;;;;;;;;;;22.50;82.10;;;;;;2013111;28;20115;-70
2022/08/12 02:57:15;;;;;;;;;;;22.50;82.10;;;;;;2013108;28;20320;-71
2022/08/12 02:58:14;;;;;;;;;;;22.50;82.10;;;;;;2012967;28;19916;-71
2022/08/12 02:59:15;;;;;;;;;;;22.50;82.10;;;;;;2013021;28;19939;-73
2022/08/12 03:00:17;;;;;;;;;;;22.50;82.10;;;;;;2012992;28;19935;-71
2022/08/12 03:01:19;;;;;;;;;;;22.50;82.10;;;;;;2013034;28;19909;-71
2022/08/12 03:02:20;;;;;;;;;;;22.50;82.10;;;;;;2012941;28;19909;-72
2022/08/12 03:03:20;;;;;;;;;;;22.40;82.00;;;;;;2012821;28;20368;-72
2022/08/12 03:04:25;;;;;;;;;;;22.50;82.10;;;;;;2012979;28;20387;-71
2022/08/12 03:05:24;;;;;;;;;;;22.40;82.10;;;;;;2013038;28;20258;-72
2022/08/12 03:06:26;;;;;;;;;;;22.50;82.20;;;;;;2013185;28;19909;-71
2022/08/12 03:07:25;;;;;;;;;;;22.40;82.00;;;;;;2013123;28;19992;-73
2022/08/12 03:08:25;;;;;;;;;;;22.40;82.70;;;;;;2012931;28;19909;-72
2022/08/12 03:09:24;;;;;;;;;;;22.40;82.00;;;;;;2013088;28;20380;-72
2022/08/12 03:10:23;;;;;;;;;;;22.40;82.10;;;;;;2012358;28;20411;-72
2022/08/12 03:11:25;;;;;;;;;;;22.40;82.00;;;;;;2012271;28;19970;-71
2022/08/12 03:12:24;;;;;;;;;;;22.40;82.10;;;;;;2012981;28;20016;-72
2022/08/12 03:13:25;;;;;;;;;;;22.40;82.10;;;;;;2012966;28;19916;-71
2022/08/12 03:14:26;;;;;;;;;;;22.40;82.10;;;;;;2012965;28;19992;-70
2022/08/12 03:15:26;;;;;;;;;;;22.50;82.10;;;;;;2012922;28;19924;-71
2022/08/12 03:16:26;;;;;;;;;;;22.40;82.00;;;;;;2013187;28;19909;-72
2022/08/12 03:17:28;;;;;;;;;;;22.50;82.20;;;;;;2012995;28;19913;-71
2022/08/12 03:18:30;;;;;;;;;;;22.40;82.10;;;;;;2012904;28;19939;-71
2022/08/12 03:19:29;;;;;;;;;;;22.40;82.10;;;;;;2012975;28;20344;-72
2022/08/12 03:20:28;;;;;;;;;;;22.40;82.10;;;;;;2012876;28;19910;-72
2022/08/12 03:21:26;;;;;;;;;;;22.40;82.10;;;;;;2012834;28;19909;-71
2022/08/12 03:22:25;;;;;;;;;;;22.40;82.10;;;;;;2012883;28;19915;-72
2022/08/12 03:23:25;;;;;;;;;;;22.40;82.10;;;;;;2012845;28;19941;-71
2022/08/12 03:24:26;;;;;;;;;;;22.40;82.10;;;;;;2012801;28;19957;-71
2022/08/12 03:25:25;;;;;;;;;;;22.40;82.10;;;;;;2012940;28;20004;-71
2022/08/12 03:26:26;;;;;;;;;;;22.40;82.10;;;;;;2012940;28;20360;-71
2022/08/12 03:27:25;;;;;;;;;;;22.50;82.30;;;;;;2012822;28;19910;-71
2022/08/12 03:29:43;;;;;;;;;;;22.40;82.10;;;;;;2012862;28;19940;-71
2022/08/12 03:30:42;;;;;;;;;;;22.50;82.30;;;;;;2012875;28;19909;-73
2022/08/12 03:31:42;;;;;;;;;;;22.40;82.20;;;;;;2012948;28;19966;-73
2022/08/12 03:32:45;;;;;;;;;;;22.40;82.20;;;;;;2012813;28;19910;-70
2022/08/12 03:33:45;;;;;;;;;;;22.40;82.20;;;;;;2012862;28;19909;-71
2022/08/12 03:34:44;;;;;;;;;;;22.50;82.30;;;;;;2012774;28;19913;-71
2022/08/12 03:35:46;;;;;;;;;;;22.40;82.30;;;;;;2012887;28;19910;-71
2022/08/12 03:36:46;;;;;;;;;;;22.40;82.20;;;;;;2012860;28;19909;-72
2022/08/12 03:37:45;;;;;;;;;;;22.40;82.20;;;;;;2012767;28;19955;-70
2022/08/12 03:38:50;;;;;;;;;;;22.50;82.30;;;;;;2012904;28;19916;-72
2022/08/12 03:39:49;;;;;;;;;;;22.50;82.40;;;;;;2012961;28;19913;-69
2022/08/12 03:42:34;;;;;;;;;;;22.40;82.20;;;;;;2012946;28;19909;-71
2022/08/12 04:00:50;;;;;;;;;;;22.40;82.40;;;;;;2012756;28;19917;-70
2022/08/12 04:01:55;;;;;;;;;;;22.40;82.40;;;;;;2012737;28;19913;-71
2022/08/12 04:03:00;;;;;;;;;;;22.40;82.40;;;;;;2012751;28;19915;-70
2022/08/12 04:04:00;;;;;;;;;;;22.40;82.40;;;;;;2012845;28;20003;-71
2022/08/12 04:05:01;;;;;;;;;;;22.40;82.50;;;;;;2012814;28;20000;-70
2022/08/12 04:05:59;;;;;;;;;;;22.40;82.40;;;;;;2012724;28;19917;-72
2022/08/12 04:06:59;;;;;;;;;;;22.30;82.40;;;;;;2012634;28;19913;-72
2022/08/12 04:07:58;;;;;;;;;;;22.30;82.40;;;;;;2012713;28;20378;-71
2022/08/12 04:08:58;;;;;;;;;;;22.40;82.50;;;;;;2012646;28;20229;-72
2022/08/12 04:09:56;;;;;;;;;;;22.40;82.60;;;;;;2012715;28;19909;-72
2022/08/12 04:13:29;;;;;;;;;;;22.40;82.60;;;;;;2012802;28;19913;-71
2022/08/12 04:14:27;;;;;;;;;;;22.30;82.50;;;;;;2012812;28;19952;-71
2022/08/12 04:15:27;;;;;;;;;;;22.40;82.60;;;;;;2012527;28;20007;-71
2022/08/12 04:16:26;;;;;;;;;;;22.40;82.60;;;;;;2012795;28;20410;-70
2022/08/12 04:17:26;;;;;;;;;;;22.40;82.60;;;;;;2012647;28;19993;-72
2022/08/12 04:18:25;;;;;;;;;;;22.40;82.60;;;;;;2012750;28;20284;-72
2022/08/12 04:19:24;;;;;;;;;;;22.40;82.60;;;;;;2012623;28;19909;-71
2022/08/12 04:20:23;;;;;;;;;;;22.40;82.60;;;;;;2012644;28;19910;-70
2022/08/12 04:21:22;;;;;;;;;;;22.40;82.60;;;;;;2012590;28;19916;-71
2022/08/12 04:22:21;;;;;;;;;;;22.40;82.60;;;;;;2012612;28;20037;-72
2022/08/12 04:23:24;;;;;;;;;;;22.40;82.60;;;;;;2012600;28;19916;-71
2022/08/12 04:24:25;;;;;;;;;;;22.40;82.60;;;;;;2012567;28;19909;-71
2022/08/12 04:25:24;;;;;;;;;;;22.40;82.60;;;;;;2012638;28;20368;-71
2022/08/12 04:26:22;;;;;;;;;;;22.30;82.60;;;;;;2012665;28;19909;-72
2022/08/12 04:27:21;;;;;;;;;;;22.40;82.60;;;;;;2012515;28;19916;-71
2022/08/12 04:28:26;;;;;;;;;;;22.40;82.70;;;;;;2012523;28;19935;-71
2022/08/12 04:29:25;;;;;;;;;;;22.40;82.70;;;;;;2012558;28;19917;-73
2022/08/12 04:30:24;;;;;;;;;;;22.30;82.60;;;;;;2011921;28;19920;-72
2022/08/12 04:31:41;;;;;;;;;;;22.30;82.60;;;;;;2012098;28;20304;-71
2022/08/12 04:32:40;;;;;;;;;;;22.30;82.60;;;;;;2012454;28;19913;-72
2022/08/12 04:33:41;;;;;;;;;;;22.40;82.70;;;;;;2012557;28;19944;-72
2022/08/12 04:34:40;;;;;;;;;;;22.40;82.70;;;;;;2012533;28;19913;-72
2022/08/12 04:35:38;;;;;;;;;;;22.40;82.60;;;;;;2011812;28;19917;-70
2022/08/12 04:36:38;;;;;;;;;;;22.40;82.60;;;;;;2012066;28;20016;-71
2022/08/12 04:37:37;;;;;;;;;;;22.30;82.60;;;;;;2012587;28;19916;-71
2022/08/12 04:38:35;;;;;;;;;;;22.30;82.60;;;;;;2012530;28;20301;-71
2022/08/12 04:39:34;;;;;;;;;;;22.40;82.60;;;;;;2012633;28;20407;-70
2022/08/12 04:40:35;;;;;;;;;;;22.30;82.60;;;;;;2013866;28;20003;-71
2022/08/12 04:41:34;;;;;;;;;;;22.30;82.60;;;;;;2014080;28;19910;-71
2022/08/12 04:42:32;;;;;;;;;;;22.30;82.60;;;;;;2014136;28;19917;-71
2022/08/12 04:43:31;;;;;;;;;;;22.40;82.80;;;;;;2014019;28;19959;-72
2022/08/12 04:44:30;;;;;;;;;;;22.30;82.60;;;;;;2014228;28;19951;-71
2022/08/12 04:45:33;;;;;;;;;;;22.30;82.60;;;;;;2014217;28;19909;-72
2022/08/12 04:46:31;;;;;;;;;;;22.30;82.60;;;;;;2014233;28;19909;-72
2022/08/12 04:47:30;;;;;;;;;;;22.30;82.60;;;;;;2014136;28;19956;-71
2022/08/12 04:48:28;;;;;;;;;;;22.30;82.70;;;;;;2014108;28;19913;-71
2022/08/12 04:49:27;;;;;;;;;;;22.30;82.70;;;;;;2013876;28;19979;-70
2022/08/12 04:50:26;;;;;;;;;;;22.30;82.80;;;;;;2014140;28;20356;-71
2022/08/12 04:51:25;;;;;;;;;;;22.40;82.90;;;;;;2014061;28;19909;-71
2022/08/12 04:52:23;;;;;;;;;;;22.30;82.70;;;;;;2013909;28;19909;-72
2022/08/12 04:53:22;;;;;;;;;;;22.30;82.90;;;;;;2014236;28;19909;-71
2022/08/12 04:54:21;;;;;;;;;;;22.30;82.80;;;;;;2014219;28;19913;-71
2022/08/12 04:55:21;;;;;;;;;;;22.30;82.70;;;;;;2014297;28;19913;-72
2022/08/12 04:56:20;;;;;;;;;;;22.30;82.80;;;;;;2014591;28;19910;-72
2022/08/12 04:57:18;;;;;;;;;;;22.30;82.80;;;;;;2014664;28;20265;-72
2022/08/12 04:58:17;;;;;;;;;;;22.30;82.80;;;;;;2014277;28;20007;-72
2022/08/12 04:59:15;;;;;;;;;;;22.30;82.70;;;;;;2013980;28;19995;-72
2022/08/12 05:00:15;;;;;;;;;;;22.30;82.70;;;;;;2014144;28;19999;-72
2022/08/12 05:01:13;;;;;;;;;;;22.30;82.70;;;;;;2014080;28;19996;-70
2022/08/12 05:02:12;;;;;;;;;;;22.30;82.80;;;;;;2014022;28;20250;-72
2022/08/12 05:03:11;;;;;;;;;;;22.30;82.80;;;;;;2013899;28;19979;-72
2022/08/12 05:04:09;;;;;;;;;;;22.30;82.80;;;;;;2013983;28;19956;-71
2022/08/12 05:05:12;;;;;;;;;;;22.30;82.80;;;;;;2013967;28;19943;-71
2022/08/12 05:06:11;;;;;;;;;;;22.40;82.90;;;;;;2013815;28;20332;-71
2022/08/12 05:07:10;;;;;;;;;;;22.40;82.90;;;;;;2013934;28;19917;-71
2022/08/12 05:08:10;;;;;;;;;;;22.30;82.90;;;;;;2014035;28;20370;-71
2022/08/12 05:09:08;;;;;;;;;;;22.30;82.90;;;;;;2013923;28;19916;-71
2022/08/12 05:10:07;;;;;;;;;;;22.30;82.80;;;;;;2013858;28;19945;-71
2022/08/12 05:11:05;;;;;;;;;;;22.30;82.90;;;;;;2013799;28;19916;-73
2022/08/12 05:12:04;;;;;;;;;;;22.40;82.90;;;;;;2013756;28;19917;-72
2022/08/12 05:13:07;;;;;;;;;;;22.30;82.80;;;;;;2013788;28;19925;-72
2022/08/12 05:14:06;;;;;;;;;;;22.30;82.90;;;;;;2014056;28;19909;-72
2022/08/12 05:15:06;;;;;;;;;;;22.40;82.90;;;;;;2013778;28;20272;-72
2022/08/12 05:16:05;;;;;;;;;;;22.40;82.90;;;;;;2013804;28;19916;-71
2022/08/12 05:17:03;;;;;;;;;;;22.30;82.80;;;;;;2013782;28;19909;-72
2022/08/12 05:18:02;;;;;;;;;;;22.30;82.90;;;;;;2013806;28;19910;-72
2022/08/12 05:19:00;;;;;;;;;;;22.30;82.80;;;;;;2013870;28;20008;-72
2022/08/12 05:19:59;;;;;;;;;;;22.30;82.80;;;;;;2013761;28;19955;-71
2022/08/12 05:20:57;;;;;;;;;;;22.30;82.80;;;;;;2013883;28;20010;-72
2022/08/12 05:21:56;;;;;;;;;;;22.40;82.90;;;;;;2013770;28;20272;-70
2022/08/12 05:23:04;;;;;;;;;;;22.40;82.90;;;;;;2013753;28;19909;-72
2022/08/12 05:24:03;;;;;;;;;;;22.30;82.80;;;;;;2013850;28;20387;-72
2022/08/12 05:25:02;;;;;;;;;;;22.40;82.90;;;;;;2013905;28;19909;-72
2022/08/12 05:26:00;;;;;;;;;;;22.30;82.80;;;;;;2013827;28;19948;-71
2022/08/12 05:26:59;;;;;;;;;;;22.40;82.90;;;;;;2013728;28;19917;-71
2022/08/12 05:27:59;;;;;;;;;;;22.30;82.90;;;;;;2013755;28;19915;-72
2022/08/12 05:28:57;;;;;;;;;;;22.40;82.90;;;;;;2013829;28;20324;-71
2022/08/12 05:29:56;;;;;;;;;;;22.30;82.90;;;;;;2013874;28;19909;-72
2022/08/12 05:30:55;;;;;;;;;;;22.40;82.90;;;;;;2013754;28;19909;-70
2022/08/12 05:31:55;;;;;;;;;;;22.40;82.90;;;;;;2013744;28;19913;-71
2022/08/12 05:32:54;;;;;;;;;;;22.40;82.90;;;;;;2013908;28;19982;-71
2022/08/12 05:33:53;;;;;;;;;;;22.40;82.90;;;;;;2013618;28;19909;-73
2022/08/12 05:34:52;;;;;;;;;;;22.40;82.90;;;;;;2013609;28;19920;-71
2022/08/12 05:35:51;;;;;;;;;;;22.40;82.80;;;;;;2013699;28;19910;-71
2022/08/12 05:36:49;;;;;;;;;;;22.40;82.90;;;;;;2013564;28;19920;-71
2022/08/12 05:37:48;;;;;;;;;;;22.40;82.90;;;;;;2013683;28;20356;-70
2022/08/12 05:38:55;;;;;;;;;;;22.30;82.90;;;;;;2012943;28;19909;-72
2022/08/12 05:39:54;;;;;;;;;;;22.30;82.90;;;;;;2013171;28;20301;-71
2022/08/12 05:40:52;;;;;;;;;;;22.40;82.90;;;;;;2013672;28;20157;-71
2022/08/12 05:41:52;;;;;;;;;;;22.40;82.90;;;;;;2013717;28;20019;-70
2022/08/12 05:42:51;;;;;;;;;;;22.40;82.90;;;;;;2013495;28;19909;-72
2022/08/12 05:43:51;;;;;;;;;;;22.40;82.90;;;;;;2013482;28;19913;-71
2022/08/12 05:44:49;;;;;;;;;;;22.40;83.00;;;;;;2013470;28;19948;-71
2022/08/12 05:45:51;;;;;;;;;;;22.50;83.00;;;;;;2013478;28;19909;-72
2022/08/12 05:46:49;;;;;;;;;;;22.40;83.20;;;;;;2013574;28;19913;-72
2022/08/12 05:47:48;;;;;;;;;;;22.50;83.00;;;;;;2013596;28;19999;-71
2022/08/12 05:48:48;;;;;;;;;;;22.50;83.10;;;;;;2013536;28;19910;-71
2022/08/12 05:49:46;;;;;;;;;;;22.40;83.00;;;;;;2013642;28;19913;-72
2022/08/12 05:50:45;;;;;;;;;;;22.40;82.90;;;;;;2013653;28;19913;-71
2022/08/12 05:51:44;;;;;;;;;;;22.40;82.90;;;;;;2012778;28;20011;-70
2022/08/12 05:52:42;;;;;;;;;;;22.40;83.00;;;;;;2013342;28;19909;-71
2022/08/12 05:53:41;;;;;;;;;;;22.40;82.90;;;;;;2013673;28;19909;-71
2022/08/12 05:54:43;;;;;;;;;;;22.50;83.00;;;;;;2013363;28;19909;-72
2022/08/12 05:55:42;;;;;;;;;;;22.40;82.90;;;;;;2013636;28;20372;-72
2022/08/12 05:56:40;;;;;;;;;;;22.50;83.10;;;;;;2013618;28;20080;-70
2022/08/12 05:57:39;;;;;;;;;;;22.40;83.00;;;;;;2013423;28;20007;-70
2022/08/12 05:58:37;;;;;;;;;;;22.40;82.90;;;;;;2013539;28;19932;-72
2022/08/12 05:59:37;;;;;;;;;;;22.40;82.90;;;;;;2013369;28;20372;-71
2022/08/12 06:00:36;;;;;;;;;;;22.40;82.90;;;;;;2013689;28;19909;-72
2022/08/12 06:01:35;;;;;;;;;;;22.50;83.00;;;;;;2013528;28;19982;-73
2022/08/12 06:02:34;;;;;;;;;;;22.50;83.10;;;;;;2013596;28;19958;-72
2022/08/12 06:03:32;;;;;;;;;;;22.50;83.10;;;;;;2013513;28;19970;-73
2022/08/12 06:04:31;;;;;;;;;;;22.40;83.00;;;;;;2013658;28;19941;-71
2022/08/12 06:05:34;;;;;;;;;;;22.40;83.00;;;;;;2013335;28;19909;-72
2022/08/12 06:06:40;;;;;;;;;;;22.40;83.00;;;;;;2013392;28;19909;-72
2022/08/12 06:07:45;;;;;;;;;;;22.40;82.90;;;;;;2013446;28;20310;-71
2022/08/12 06:08:45;;;;;;;;;;;22.40;82.90;;;;;;2013337;28;20253;-71
2022/08/12 06:09:43;;;;;;;;;;;22.50;82.90;;;;;;2013149;28;19963;-71
2022/08/12 06:10:42;;;;;;;;;;;22.50;82.90;;;;;;2013228;28;19985;-71
2022/08/12 06:11:40;;;;;;;;;;;22.40;82.90;;;;;;2013164;28;19917;-71
2022/08/12 06:12:39;;;;;;;;;;;22.40;82.80;;;;;;2012589;28;19916;-72
2022/08/12 06:13:37;;;;;;;;;;;22.40;82.90;;;;;;2012871;28;19916;-71
2022/08/12 06:14:36;;;;;;;;;;;22.50;83.00;;;;;;2013420;28;20014;-72
2022/08/12 06:15:36;;;;;;;;;;;22.40;82.90;;;;;;2013452;28;19917;-71
2022/08/12 06:16:35;;;;;;;;;;;22.50;83.00;;;;;;2013479;28;19932;-70
2022/08/12 06:17:34;;;;;;;;;;;22.40;82.90;;;;;;2013474;28;20356;-71
2022/08/12 06:18:32;;;;;;;;;;;22.40;82.90;;;;;;2013345;28;19909;-71
2022/08/12 06:19:31;;;;;;;;;;;22.40;82.90;;;;;;2013329;28;19909;-73
2022/08/12 06:20:31;;;;;;;;;;;22.50;83.00;;;;;;2013321;28;19956;-71
2022/08/12 06:21:29;;;;;;;;;;;22.50;83.00;;;;;;2013398;28;20344;-73
2022/08/12 06:22:28;;;;;;;;;;;22.40;82.90;;;;;;2013281;28;19996;-71
2022/08/12 06:23:27;;;;;;;;;;;22.40;82.80;;;;;;2013448;28;19945;-72
2022/08/12 06:24:28;;;;;;;;;;;22.50;82.90;;;;;;2013230;28;19920;-72
2022/08/12 06:25:27;;;;;;;;;;;22.40;82.80;;;;;;2013435;28;19909;-71
2022/08/12 06:26:26;;;;;;;;;;;22.50;82.80;;;;;;2013455;28;20273;-70
2022/08/12 06:27:24;;;;;;;;;;;22.50;82.90;;;;;;2013205;28;19932;-73
2022/08/12 06:28:23;;;;;;;;;;;22.50;82.90;;;;;;2013238;28;20284;-72
2022/08/12 06:29:22;;;;;;;;;;;22.50;82.80;;;;;;2013308;28;19936;-71
2022/08/12 06:30:21;;;;;;;;;;;22.50;82.80;;;;;;2013379;28;19909;-71
2022/08/12 06:31:20;;;;;;;;;;;22.50;82.80;;;;;;2013132;28;19920;-72
2022/08/12 06:32:18;;;;;;;;;;;22.60;83.00;;;;;;2013202;28;19916;-70
2022/08/12 06:33:17;;;;;;;;;;;22.50;82.80;;;;;;2013244;28;19909;-70
2022/08/12 06:34:16;;;;;;;;;;;22.50;82.80;;;;;;2013028;28;20225;-71
2022/08/12 06:35:15;;;;;;;;;;;22.50;82.80;;;;;;2013039;28;19913;-72
2022/08/12 06:36:15;;;;;;;;;;;22.50;82.80;;;;;;2013063;28;19909;-72
2022/08/12 06:37:16;;;;;;;;;;;22.50;82.80;;;;;;2013283;28;19909;-71
2022/08/12 06:38:22;;;;;;;;;;;22.50;82.80;;;;;;2013030;28;19916;-71
2022/08/12 06:39:22;;;;;;;;;;;22.50;82.80;;;;;;2013070;28;20320;-71
2022/08/12 06:42:55;;;;;;;;;;;22.50;82.80;;;;;;2013036;28;20071;-70
2022/08/12 06:43:54;;;;;;;;;;;22.50;82.80;;;;;;2013096;28;19909;-72
2022/08/12 06:44:52;;;;;;;;;;;22.50;82.80;;;;;;2013132;28;19909;-71
2022/08/12 06:45:52;;;;;;;;;;;22.60;83.50;;;;;;2013148;28;19909;-70
2022/08/12 06:46:51;;;;;;;;;;;22.50;82.70;;;;;;2013127;28;20276;-71
2022/08/12 06:47:50;;;;;;;;;;;22.50;82.60;;;;;;2013132;28;19951;-73
2022/08/12 06:48:49;;;;;;;;;;;22.50;82.70;;;;;;2013221;28;19948;-72
2022/08/12 06:49:48;;;;;;;;;;;22.50;82.70;;;;;;2013227;28;19909;-71
2022/08/12 06:50:48;;;;;;;;;;;22.50;82.80;;;;;;2013394;28;19909;-70
2022/08/12 06:51:46;;;;;;;;;;;22.50;82.80;;;;;;2013229;28;19909;-73
2022/08/12 06:52:45;;;;;;;;;;;22.60;82.80;;;;;;2013130;28;20327;-74
2022/08/12 06:53:43;;;;;;;;;;;22.50;82.70;;;;;;2013306;28;19909;-70
2022/08/12 06:54:44;;;;;;;;;;;22.50;82.70;;;;;;2013006;28;20007;-72
2022/08/12 06:55:43;;;;;;;;;;;22.50;82.70;;;;;;2013136;28;19913;-72
2022/08/12 06:56:41;;;;;;;;;;;22.50;82.70;;;;;;2012434;28;19944;-71
2022/08/12 06:57:53;;;;;;;;;;;22.50;82.60;;;;;;2012589;28;19916;-71
2022/08/12 06:58:51;;;;;;;;;;;22.50;82.60;;;;;;2013003;28;19909;-70
2022/08/12 06:59:50;;;;;;;;;;;22.60;82.70;;;;;;2013214;28;19944;-72
2022/08/12 07:00:49;;;;;;;;;;;22.50;82.60;;;;;;2013123;28;19955;-71
2022/08/12 07:01:48;;;;;;;;;;;22.50;82.70;;;;;;2013182;28;19920;-71
2022/08/12 07:02:46;;;;;;;;;;;22.50;82.70;;;;;;2012968;28;19909;-72
2022/08/12 07:03:45;;;;;;;;;;;22.60;82.80;;;;;;2012866;28;19916;-72
2022/08/12 07:04:44;;;;;;;;;;;22.60;82.80;;;;;;2013012;28;19909;-70
2022/08/12 07:05:43;;;;;;;;;;;22.50;82.60;;;;;;2012366;28;20370;-71
2022/08/12 07:06:43;;;;;;;;;;;22.60;82.70;;;;;;2012385;28;19963;-73
2022/08/12 07:07:45;;;;;;;;;;;22.60;82.60;;;;;;2013127;28;19909;-71
2022/08/12 07:08:44;;;;;;;;;;;22.60;82.60;;;;;;2012263;28;19913;-71
2022/08/12 07:09:43;;;;;;;;;;;22.60;82.60;;;;;;2012325;28;19909;-71
2022/08/12 07:10:43;;;;;;;;;;;22.60;82.60;;;;;;2013036;28;19909;-73
2022/08/12 07:11:43;;;;;;;;;;;22.60;82.50;;;;;;2012967;28;19913;-71
2022/08/12 07:12:41;;;;;;;;;;;22.60;82.60;;;;;;2012881;28;19909;-71
2022/08/12 07:13:44;;;;;;;;;;;22.60;82.50;;;;;;2013059;28;19910;-71
2022/08/12 07:14:42;;;;;;;;;;;22.70;82.60;;;;;;2012912;28;19909;-72
2022/08/12 07:15:42;;;;;;;;;;;22.60;82.50;;;;;;2012766;28;19940;-71
2022/08/12 07:16:55;;;;;;;;;;;22.60;82.40;;;;;;2012900;28;19909;-71
2022/08/12 07:17:59;;;;;;;;;;;22.60;82.40;;;;;;2013109;28;19909;-71